createdAt,value
2023-05-05T00:00:21.544Z,237.80
2023-05-05T00:01:21.549Z,238.81
2023-05-05T00:02:21.575Z,239.02
2023-05-05T00:03:21.664Z,239.09
2023-05-05T00:04:21.589Z,239.18
2023-05-05T00:05:21.571Z,239.14
2023-05-05T00:06:21.554Z,239.20
2023-05-05T00:07:21.570Z,239.39
2023-05-05T00:08:21.557Z,240.72
2023-05-05T00:09:21.565Z,238.92
2023-05-05T00:10:21.563Z,240.63
2023-05-05T00:11:21.577Z,240.67
2023-05-05T00:12:21.582Z,238.48
2023-05-05T00:13:21.582Z,238.28
2023-05-05T00:14:21.585Z,239.83
2023-05-05T00:15:21.603Z,238.21
2023-05-05T00:16:21.646Z,239.31
2023-05-05T00:17:21.609Z,239.50
2023-05-05T00:18:21.605Z,239.32
2023-05-05T00:19:21.604Z,240.65
2023-05-05T00:20:21.614Z,240.50
2023-05-05T00:21:21.612Z,238.81
2023-05-05T00:22:21.619Z,241.75
2023-05-05T00:23:21.645Z,242.11
2023-05-05T00:24:21.640Z,243.88
2023-05-05T00:25:21.653Z,241.36
2023-05-05T00:26:21.654Z,241.90
2023-05-05T00:27:21.670Z,242.09
2023-05-05T00:28:21.677Z,240.51
2023-05-05T00:29:21.694Z,239.24
2023-05-05T00:30:21.697Z,241.75
2023-05-05T00:31:21.775Z,242.38
2023-05-05T00:32:21.778Z,242.96
2023-05-05T00:33:21.719Z,242.99
2023-05-05T00:34:21.725Z,242.57
2023-05-05T00:35:21.740Z,243.30
2023-05-05T00:36:21.754Z,243.01
2023-05-05T00:37:21.765Z,243.61
2023-05-05T00:38:21.779Z,243.43
2023-05-05T00:39:21.787Z,242.71
2023-05-05T00:40:21.801Z,241.96
2023-05-05T00:41:21.810Z,242.35
2023-05-05T00:42:21.824Z,242.81
2023-05-05T00:43:21.829Z,242.14
2023-05-05T00:44:21.835Z,241.92
2023-05-05T00:45:21.848Z,242.20
2023-05-05T00:46:21.897Z,241.55
2023-05-05T00:47:21.853Z,241.42
2023-05-05T00:48:21.860Z,242.54
2023-05-05T00:49:21.864Z,241.64
2023-05-05T00:50:21.861Z,241.03
2023-05-05T00:51:21.870Z,243.35
2023-05-05T00:52:21.885Z,242.22
2023-05-05T00:53:21.878Z,242.20
2023-05-05T00:54:21.875Z,242.28
2023-05-05T00:55:21.892Z,243.03
2023-05-05T00:56:21.903Z,242.08
2023-05-05T00:57:21.889Z,241.64
2023-05-05T00:58:21.897Z,241.09
2023-05-05T00:59:21.898Z,240.43
2023-05-05T01:00:21.898Z,241.52
2023-05-05T01:01:21.933Z,240.15
2023-05-05T01:02:21.932Z,240.61
2023-05-05T01:03:21.976Z,241.06
2023-05-05T01:04:21.928Z,240.77
2023-05-05T01:05:21.933Z,241.20
2023-05-05T01:06:21.942Z,241.00
2023-05-05T01:07:21.950Z,242.05
2023-05-05T01:08:21.952Z,239.81
2023-05-05T01:09:21.957Z,240.71
2023-05-05T01:10:22.363Z,238.57
2023-05-05T01:11:21.982Z,239.02
2023-05-05T01:12:21.979Z,239.76
2023-05-05T01:13:21.980Z,239.21
2023-05-05T01:14:21.988Z,241.07
2023-05-05T01:15:21.996Z,241.17
2023-05-05T01:16:22.189Z,239.71
2023-05-05T01:17:22.027Z,241.75
2023-05-05T01:18:22.017Z,240.00
2023-05-05T01:19:22.047Z,239.37
2023-05-05T01:20:22.057Z,241.10
2023-05-05T01:21:22.066Z,240.61
2023-05-05T01:22:22.075Z,240.19
2023-05-05T01:23:22.086Z,239.55
2023-05-05T01:24:22.096Z,240.51
2023-05-05T01:25:22.109Z,238.22
2023-05-05T01:26:22.132Z,238.91
2023-05-05T01:27:22.144Z,238.61
2023-05-05T01:28:22.145Z,238.70
2023-05-05T01:29:22.164Z,238.93
2023-05-05T01:30:22.172Z,239.12
2023-05-05T01:31:22.217Z,240.37
2023-05-05T01:32:22.251Z,239.60
2023-05-05T01:33:22.223Z,238.97
2023-05-05T01:34:22.235Z,239.39
2023-05-05T01:35:22.252Z,239.59
2023-05-05T01:36:22.252Z,240.76
2023-05-05T01:37:22.272Z,240.73
2023-05-05T01:38:22.265Z,240.20
2023-05-05T01:39:22.277Z,238.27
2023-05-05T01:40:22.289Z,237.94
2023-05-05T01:41:22.300Z,238.21
2023-05-05T01:42:22.318Z,238.49
2023-05-05T01:43:22.330Z,239.17
2023-05-05T01:44:22.326Z,239.36
2023-05-05T01:45:22.341Z,236.89
2023-05-05T01:46:22.481Z,235.48
2023-05-05T01:47:22.375Z,235.59
2023-05-05T01:48:22.371Z,235.55
2023-05-05T01:49:22.382Z,236.14
2023-05-05T01:50:22.402Z,236.18
2023-05-05T01:51:22.412Z,237.42
2023-05-05T01:52:22.425Z,236.59
2023-05-05T01:53:22.425Z,238.05
2023-05-05T01:54:22.439Z,236.37
2023-05-05T01:55:22.447Z,236.83
2023-05-05T01:56:22.459Z,235.78
2023-05-05T01:57:22.463Z,236.29
2023-05-05T01:58:22.485Z,233.99
2023-05-05T01:59:22.491Z,235.13
2023-05-05T02:00:22.510Z,234.75
2023-05-05T02:01:22.573Z,233.33
2023-05-05T02:02:22.559Z,234.72
2023-05-05T02:03:22.604Z,234.09
2023-05-05T02:04:22.716Z,233.19
2023-05-05T02:05:22.579Z,231.69
2023-05-05T02:06:22.583Z,233.75
2023-05-05T02:07:22.613Z,232.91
2023-05-05T02:08:22.635Z,232.19
2023-05-05T02:09:22.636Z,231.79
2023-05-05T02:10:22.643Z,235.95
2023-05-05T02:11:22.655Z,234.39
2023-05-05T02:12:22.667Z,233.61
2023-05-05T02:13:22.728Z,231.15
2023-05-05T02:14:22.698Z,233.78
2023-05-05T02:15:22.707Z,232.70
2023-05-05T02:16:22.776Z,233.69
2023-05-05T02:17:22.768Z,232.28
2023-05-05T02:18:22.740Z,229.95
2023-05-05T02:19:22.755Z,230.77
2023-05-05T02:20:22.761Z,229.25
2023-05-05T02:21:22.785Z,232.16
2023-05-05T02:22:22.786Z,231.69
2023-05-05T02:23:22.796Z,228.40
2023-05-05T02:24:22.810Z,227.38
2023-05-05T02:25:22.818Z,226.34
2023-05-05T02:26:22.839Z,224.70
2023-05-05T02:27:22.852Z,220.64
2023-05-05T02:28:22.864Z,220.97
2023-05-05T02:29:22.884Z,218.59
2023-05-05T02:30:22.913Z,219.24
2023-05-05T02:31:22.976Z,218.22
2023-05-05T02:32:22.995Z,216.90
2023-05-05T02:33:22.932Z,216.47
2023-05-05T02:34:22.935Z,214.11
2023-05-05T02:35:22.974Z,211.71
2023-05-05T02:36:22.987Z,210.69
2023-05-05T02:37:22.978Z,209.29
2023-05-05T02:38:22.999Z,210.03
2023-05-05T02:39:23.005Z,208.50
2023-05-05T02:40:23.017Z,210.34
2023-05-05T02:41:23.022Z,209.56
2023-05-05T02:42:23.026Z,209.99
2023-05-05T02:43:23.145Z,209.12
2023-05-05T02:44:23.050Z,207.96
2023-05-05T02:45:23.084Z,206.87
2023-05-05T02:46:23.133Z,204.35
2023-05-05T02:47:23.099Z,201.25
2023-05-05T02:48:23.123Z,197.38
2023-05-05T02:49:23.124Z,193.65
2023-05-05T02:50:23.131Z,192.75
2023-05-05T02:51:23.148Z,191.83
2023-05-05T02:52:23.173Z,189.57
2023-05-05T02:53:23.200Z,189.98
2023-05-05T02:54:23.237Z,188.69
2023-05-05T02:55:23.255Z,189.13
2023-05-05T02:56:23.283Z,188.16
2023-05-05T02:57:23.316Z,187.77
2023-05-05T02:58:23.327Z,188.17
2023-05-05T02:59:23.357Z,182.05
2023-05-05T03:00:23.380Z,167.00
2023-05-05T03:01:23.455Z,158.72
2023-05-05T03:02:23.530Z,144.36
2023-05-05T03:03:23.585Z,132.75
2023-05-05T03:04:23.518Z,123.06
2023-05-05T03:05:23.559Z,109.54
2023-05-05T03:06:23.613Z,98.72
2023-05-05T03:07:23.680Z,90.46
2023-05-05T03:08:23.751Z,84.20
2023-05-05T03:09:23.821Z,77.28
2023-05-05T03:10:23.911Z,69.38
2023-05-05T03:11:23.994Z,64.24
2023-05-05T03:12:24.097Z,57.68
2023-05-05T03:13:24.192Z,52.58
2023-05-05T03:14:24.259Z,48.53
2023-05-05T03:15:24.314Z,43.50
2023-05-05T03:16:24.402Z,39.27
2023-05-05T03:17:24.391Z,36.14
2023-05-05T03:18:24.425Z,31.73
2023-05-05T03:19:24.487Z,29.46
2023-05-05T03:20:24.530Z,26.68
2023-05-05T03:21:24.558Z,25.00
2023-05-05T03:22:24.619Z,25.43
2023-05-05T03:23:24.667Z,25.73
2023-05-05T03:24:24.677Z,25.66
2023-05-05T03:25:24.725Z,25.01
2023-05-05T03:26:24.756Z,25.03
2023-05-05T03:27:24.796Z,25.02
2023-05-05T03:28:24.829Z,20.91
2023-05-05T03:29:24.864Z,21.77
2023-05-05T03:30:24.925Z,21.74
2023-05-05T03:31:24.971Z,19.22
2023-05-05T03:32:24.985Z,18.06
2023-05-05T03:33:24.986Z,16.69
2023-05-05T03:34:25.029Z,14.76
2023-05-05T03:35:25.058Z,25.36
2023-05-05T03:36:26.127Z,25.00
2023-05-05T03:37:25.152Z,25.16
2023-05-05T03:38:25.238Z,25.79
2023-05-05T03:39:25.217Z,27.59
2023-05-05T03:40:36.188Z,25.99
2023-05-05T03:41:26.294Z,25.99
2023-05-05T03:42:25.336Z,25.73
2023-05-05T03:43:25.362Z,24.98
2023-05-05T03:44:25.400Z,25.30
2023-05-05T03:45:25.412Z,24.41
2023-05-05T03:46:25.446Z,25.43
2023-05-05T03:47:25.476Z,25.29
2023-05-05T03:48:25.515Z,27.75
2023-05-05T03:49:25.549Z,27.71
2023-05-05T03:50:25.588Z,26.64
2023-05-05T03:51:25.633Z,25.29
2023-05-05T03:52:25.678Z,25.91
2023-05-05T03:53:25.718Z,26.76
2023-05-05T03:54:25.751Z,25.43
2023-05-05T03:55:25.812Z,25.08
2023-05-05T03:56:25.831Z,26.56
2023-05-05T03:57:25.869Z,25.90
2023-05-05T03:58:25.911Z,25.97
2023-05-05T03:59:25.947Z,27.55
2023-05-05T04:00:25.986Z,32.98
2023-05-05T04:01:26.028Z,34.01
2023-05-05T04:02:26.134Z,36.13
2023-05-05T04:03:26.318Z,38.38
2023-05-05T04:04:26.250Z,41.56
2023-05-05T04:05:26.282Z,44.61
2023-05-05T04:06:26.329Z,44.69
2023-05-05T04:07:26.357Z,45.39
2023-05-05T04:08:26.402Z,46.45
2023-05-05T04:09:26.440Z,48.61
2023-05-05T04:10:26.486Z,49.56
2023-05-05T04:11:26.505Z,51.83
2023-05-05T04:12:26.540Z,56.58
2023-05-05T04:13:26.602Z,58.08
2023-05-05T04:14:26.626Z,60.32
2023-05-05T04:15:26.656Z,60.44
2023-05-05T04:16:26.746Z,60.78
2023-05-05T04:17:26.760Z,60.72
2023-05-05T04:18:26.784Z,61.95
2023-05-05T04:19:26.820Z,63.30
2023-05-05T04:20:26.867Z,61.97
2023-05-05T04:21:26.894Z,58.94
2023-05-05T04:22:26.935Z,58.95
2023-05-05T04:23:26.969Z,58.72
2023-05-05T04:24:27.006Z,59.65
2023-05-05T04:25:27.054Z,60.35
2023-05-05T04:26:27.091Z,59.05
2023-05-05T04:27:27.126Z,58.73
2023-05-05T04:28:27.177Z,56.81
2023-05-05T04:29:27.220Z,54.98
2023-05-05T04:30:27.304Z,53.56
2023-05-05T04:31:27.371Z,51.13
2023-05-05T04:32:27.457Z,48.25
2023-05-05T04:33:27.539Z,47.83
2023-05-05T04:34:27.632Z,48.63
2023-05-05T04:35:27.704Z,50.54
2023-05-05T04:36:27.774Z,50.37
2023-05-05T04:37:27.897Z,51.36
2023-05-05T04:38:28.047Z,52.30
2023-05-05T04:39:28.023Z,51.63
2023-05-05T04:40:28.106Z,53.56
2023-05-05T04:41:30.014Z,54.25
2023-05-05T04:42:28.284Z,55.86
2023-05-05T04:43:28.368Z,57.00
2023-05-05T04:44:28.456Z,57.63
2023-05-05T04:45:28.544Z,56.84
2023-05-05T04:46:28.694Z,56.96
2023-05-05T04:47:28.751Z,56.88
2023-05-05T04:48:28.836Z,55.13
2023-05-05T04:49:28.920Z,56.29
2023-05-05T04:50:29.027Z,56.05
2023-05-05T04:51:29.130Z,56.77
2023-05-05T04:52:29.216Z,55.70
2023-05-05T04:53:29.322Z,57.43
2023-05-05T04:54:29.416Z,56.88
2023-05-05T04:55:29.508Z,54.49
2023-05-05T04:56:29.616Z,53.77
2023-05-05T04:57:29.727Z,55.40
2023-05-05T04:58:29.822Z,52.92
2023-05-05T04:59:29.903Z,55.19
2023-05-05T05:00:30.011Z,55.55
2023-05-05T05:01:30.075Z,54.54
2023-05-05T05:02:30.151Z,53.67
2023-05-05T05:03:30.189Z,53.10
2023-05-05T05:04:30.188Z,54.17
2023-05-05T05:05:30.217Z,55.76
2023-05-05T05:06:30.261Z,57.63
2023-05-05T05:07:30.310Z,65.86
2023-05-05T05:08:30.357Z,83.36
2023-05-05T05:09:30.387Z,108.04
2023-05-05T05:10:30.425Z,116.04
2023-05-05T05:11:30.454Z,126.55
2023-05-05T05:12:30.544Z,131.92
2023-05-05T05:13:30.527Z,134.76
2023-05-05T05:14:30.566Z,134.87
2023-05-05T05:15:30.602Z,139.94
2023-05-05T05:16:30.712Z,144.70
2023-05-05T05:17:30.674Z,147.31
2023-05-05T05:18:30.701Z,150.16
2023-05-05T05:19:30.719Z,154.25
2023-05-05T05:20:30.763Z,157.68
2023-05-05T05:21:30.785Z,159.55
2023-05-05T05:22:30.827Z,162.35
2023-05-05T05:23:30.862Z,164.02
2023-05-05T05:24:30.907Z,166.25
2023-05-05T05:25:30.916Z,169.86
2023-05-05T05:26:30.963Z,170.78
2023-05-05T05:27:30.964Z,173.60
2023-05-05T05:28:30.997Z,174.06
2023-05-05T05:29:31.016Z,174.98
2023-05-05T05:30:31.085Z,178.39
2023-05-05T05:31:31.168Z,178.59
2023-05-05T05:32:31.175Z,180.08
2023-05-05T05:33:31.231Z,184.97
2023-05-05T05:34:31.194Z,195.32
2023-05-05T05:35:31.219Z,208.98
2023-05-05T05:36:31.247Z,207.39
2023-05-05T05:37:31.577Z,194.34
2023-05-05T05:38:31.317Z,191.29
2023-05-05T05:39:31.323Z,195.40
2023-05-05T05:40:31.908Z,207.55
2023-05-05T05:41:31.469Z,221.02
2023-05-05T05:42:31.443Z,228.87
2023-05-05T05:43:31.446Z,239.35
2023-05-05T05:44:31.479Z,236.77
2023-05-05T05:45:31.501Z,227.16
2023-05-05T05:46:31.841Z,230.52
2023-05-05T05:47:31.599Z,222.79
2023-05-05T05:48:31.624Z,217.82
2023-05-05T05:49:31.632Z,209.15
2023-05-05T05:50:31.714Z,212.47
2023-05-05T05:51:31.694Z,215.42
2023-05-05T05:52:31.724Z,221.17
2023-05-05T05:53:31.772Z,225.09
2023-05-05T05:54:31.797Z,228.12
2023-05-05T05:55:31.819Z,230.78
2023-05-05T05:56:31.858Z,232.82
2023-05-05T05:57:31.893Z,235.07
2023-05-05T05:58:31.937Z,239.50
2023-05-05T05:59:31.950Z,239.59
2023-05-05T06:00:31.990Z,240.16
2023-05-05T06:01:32.012Z,240.65
2023-05-05T06:02:32.122Z,244.54
2023-05-05T06:03:32.158Z,249.35
2023-05-05T06:04:32.189Z,250.00
2023-05-05T06:05:32.138Z,250.00
2023-05-05T06:06:32.185Z,250.00
2023-05-05T06:07:32.182Z,248.66
2023-05-05T06:08:32.229Z,250.33
2023-05-05T06:09:32.316Z,250.00
2023-05-05T06:10:32.679Z,250.14
2023-05-05T06:11:32.479Z,249.99
2023-05-05T06:12:32.519Z,250.23
2023-05-05T06:13:32.552Z,251.40
2023-05-05T06:14:32.575Z,253.33
2023-05-05T06:15:32.584Z,256.95
2023-05-05T06:16:32.703Z,264.55
2023-05-05T06:17:32.653Z,256.94
2023-05-05T06:18:32.678Z,250.00
2023-05-05T06:19:32.688Z,244.97
2023-05-05T06:20:32.728Z,229.78
2023-05-05T06:21:32.752Z,215.53
2023-05-05T06:22:32.795Z,211.81
2023-05-05T06:23:32.814Z,195.83
2023-05-05T06:24:32.875Z,187.94
2023-05-05T06:25:32.966Z,175.58
2023-05-05T06:26:33.069Z,174.86
2023-05-05T06:27:33.158Z,165.46
2023-05-05T06:28:33.363Z,166.59
2023-05-05T06:29:33.375Z,164.27
2023-05-05T06:30:33.452Z,159.14
2023-05-05T06:31:33.569Z,156.12
2023-05-05T06:32:33.618Z,156.01
2023-05-05T06:33:33.704Z,155.30
2023-05-05T06:34:33.704Z,146.36
2023-05-05T06:35:33.737Z,138.55
2023-05-05T06:36:33.795Z,149.55
2023-05-05T06:37:33.786Z,135.27
2023-05-05T06:38:33.805Z,136.59
2023-05-05T06:39:33.833Z,151.76
2023-05-05T06:40:33.873Z,167.47
2023-05-05T06:41:33.884Z,205.87
2023-05-05T06:42:33.932Z,206.05
2023-05-05T06:43:33.997Z,183.33
2023-05-05T06:44:34.037Z,164.00
2023-05-05T06:45:34.088Z,163.19
2023-05-05T06:46:34.151Z,164.39
2023-05-05T06:47:34.172Z,151.72
2023-05-05T06:48:34.211Z,149.77
2023-05-05T06:49:34.251Z,144.88
2023-05-05T06:50:34.411Z,150.22
2023-05-05T06:51:34.339Z,139.80
2023-05-05T06:52:34.374Z,139.85
2023-05-05T06:53:34.410Z,133.38
2023-05-05T06:54:34.445Z,119.49
2023-05-05T06:55:34.469Z,107.69
2023-05-05T06:56:34.513Z,100.08
2023-05-05T06:57:34.551Z,89.48
2023-05-05T06:58:34.573Z,82.18
2023-05-05T06:59:34.604Z,77.28
2023-05-05T07:00:34.689Z,79.69
2023-05-05T07:01:34.662Z,73.98
2023-05-05T07:02:34.729Z,70.98
2023-05-05T07:03:34.780Z,72.29
2023-05-05T07:04:34.804Z,69.68
2023-05-05T07:05:34.828Z,69.34
2023-05-05T07:06:34.943Z,67.58
2023-05-05T07:07:34.914Z,63.70
2023-05-05T07:08:34.966Z,67.83
2023-05-05T07:09:34.993Z,71.23
2023-05-05T07:10:35.035Z,74.54
2023-05-05T07:11:35.089Z,76.83
2023-05-05T07:12:35.139Z,78.99
2023-05-05T07:13:35.166Z,76.02
2023-05-05T07:14:35.193Z,80.08
2023-05-05T07:15:35.272Z,73.05
2023-05-05T07:16:35.327Z,69.38
2023-05-05T07:17:35.316Z,71.81
2023-05-05T07:18:35.327Z,67.58
2023-05-05T07:19:35.491Z,62.65
2023-05-05T07:20:35.422Z,61.82
2023-05-05T07:21:35.445Z,64.79
2023-05-05T07:22:35.683Z,67.97
2023-05-05T07:23:35.525Z,67.01
2023-05-05T07:24:35.549Z,67.86
2023-05-05T07:25:35.585Z,65.50
2023-05-05T07:26:35.615Z,65.55
2023-05-05T07:27:35.652Z,64.92
2023-05-05T07:28:35.700Z,65.41
2023-05-05T07:29:35.717Z,65.07
2023-05-05T07:30:35.755Z,63.32
2023-05-05T07:31:35.804Z,65.52
2023-05-05T07:32:35.856Z,65.65
2023-05-05T07:33:35.872Z,65.68
2023-05-05T07:34:35.898Z,65.90
2023-05-05T07:35:35.925Z,66.79
2023-05-05T07:36:35.951Z,69.05
2023-05-05T07:37:35.970Z,79.95
2023-05-05T07:38:36.082Z,82.31
2023-05-05T07:39:36.047Z,62.46
2023-05-05T07:40:36.051Z,72.96
2023-05-05T07:41:36.088Z,91.34
2023-05-05T07:42:36.132Z,98.15
2023-05-05T07:43:36.156Z,96.94
2023-05-05T07:44:36.166Z,81.75
2023-05-05T07:45:36.185Z,61.43
2023-05-05T07:46:36.363Z,65.75
2023-05-05T07:47:36.303Z,42.26
2023-05-05T07:48:38.341Z,26.77
2023-05-05T07:49:36.274Z,25.81
2023-05-05T07:50:36.277Z,25.00
2023-05-05T07:51:36.298Z,14.19
2023-05-05T07:52:46.661Z,10.02
2023-05-05T07:53:37.347Z,10.10
2023-05-05T07:54:36.414Z,12.13
2023-05-05T07:55:36.380Z,8.31
2023-05-05T07:56:36.397Z,9.71
2023-05-05T07:57:36.420Z,6.30
2023-05-05T07:58:36.447Z,0.00
2023-05-05T07:59:36.470Z,0.00
2023-05-05T08:00:36.507Z,0.00
2023-05-05T08:01:36.521Z,0.00
2023-05-05T08:02:36.636Z,0.00
2023-05-05T08:03:36.673Z,0.00
2023-05-05T08:04:36.630Z,0.00
2023-05-05T08:05:36.623Z,0.00
2023-05-05T08:06:36.645Z,0.00
2023-05-05T08:07:36.670Z,0.00
2023-05-05T08:08:36.709Z,0.00
2023-05-05T08:09:36.722Z,0.00
2023-05-05T08:10:36.863Z,0.00
2023-05-05T08:11:36.780Z,1.24
2023-05-05T08:12:36.914Z,14.15
2023-05-05T08:13:36.961Z,25.00
2023-05-05T08:14:37.058Z,28.27
2023-05-05T08:15:37.143Z,25.00
2023-05-05T08:16:37.295Z,25.00
2023-05-05T08:17:37.406Z,24.60
2023-05-05T08:18:37.439Z,24.84
2023-05-05T08:19:37.523Z,25.00
2023-05-05T08:20:37.634Z,25.00
2023-05-05T08:21:37.728Z,25.00
2023-05-05T08:22:37.778Z,25.00
2023-05-05T08:23:37.882Z,27.99
2023-05-05T08:24:37.969Z,44.16
2023-05-05T08:25:38.048Z,51.60
2023-05-05T08:26:38.221Z,61.88
2023-05-05T08:27:38.267Z,68.51
2023-05-05T08:28:38.315Z,72.56
2023-05-05T08:29:38.409Z,75.09
2023-05-05T08:30:38.552Z,76.38
2023-05-05T08:31:38.605Z,76.66
2023-05-05T08:32:38.710Z,77.81
2023-05-05T08:33:38.624Z,79.20
2023-05-05T08:34:38.625Z,77.52
2023-05-05T08:35:38.638Z,78.54
2023-05-05T08:36:38.675Z,69.92
2023-05-05T08:37:38.705Z,65.86
2023-05-05T08:38:38.715Z,62.80
2023-05-05T08:39:38.740Z,69.58
2023-05-05T08:40:38.752Z,65.21
2023-05-05T08:41:38.779Z,65.27
2023-05-05T08:42:39.575Z,65.40
2023-05-05T08:43:38.814Z,65.89
2023-05-05T08:44:38.832Z,69.87
2023-05-05T08:45:38.854Z,79.90
2023-05-05T08:46:38.908Z,91.30
2023-05-05T08:47:39.014Z,98.25
2023-05-05T08:48:38.936Z,103.77
2023-05-05T08:49:38.940Z,103.74
2023-05-05T08:50:38.964Z,105.83
2023-05-05T08:51:38.981Z,95.62
2023-05-05T08:52:39.052Z,86.34
2023-05-05T08:53:39.044Z,75.10
2023-05-05T08:54:39.068Z,68.97
2023-05-05T08:55:39.093Z,54.52
2023-05-05T08:56:39.148Z,58.64
2023-05-05T08:57:39.219Z,50.60
2023-05-05T08:58:39.349Z,40.13
2023-05-05T08:59:39.356Z,36.82
2023-05-05T09:00:39.452Z,36.70
2023-05-05T09:01:39.462Z,39.02
2023-05-05T09:02:39.608Z,32.00
2023-05-05T09:03:39.628Z,25.42
2023-05-05T09:04:39.646Z,25.69
2023-05-05T09:05:39.709Z,21.85
2023-05-05T09:06:39.814Z,22.22
2023-05-05T09:07:39.852Z,25.27
2023-05-05T09:08:39.884Z,24.87
2023-05-05T09:09:39.898Z,23.23
2023-05-05T09:10:39.920Z,21.42
2023-05-05T09:11:39.928Z,16.54
2023-05-05T09:12:39.995Z,16.07
2023-05-05T09:13:39.969Z,24.95
2023-05-05T09:14:40.092Z,26.61
2023-05-05T09:15:40.050Z,23.63
2023-05-05T09:16:40.169Z,27.64
2023-05-05T09:17:40.113Z,25.21
2023-05-05T09:18:40.106Z,25.33
2023-05-05T09:19:40.112Z,26.07
2023-05-05T09:20:40.141Z,25.06
2023-05-05T09:21:40.219Z,25.32
2023-05-05T09:22:40.294Z,24.68
2023-05-05T09:23:40.317Z,24.75
2023-05-05T09:24:40.349Z,24.80
2023-05-05T09:25:40.363Z,25.23
2023-05-05T09:26:40.372Z,27.97
2023-05-05T09:27:40.393Z,29.94
2023-05-05T09:28:40.403Z,28.86
2023-05-05T09:29:40.434Z,26.55
2023-05-05T09:30:40.542Z,29.31
2023-05-05T09:31:40.502Z,29.68
2023-05-05T09:32:40.483Z,25.28
2023-05-05T09:33:40.508Z,25.70
2023-05-05T09:34:40.581Z,31.72
2023-05-05T09:35:40.584Z,31.86
2023-05-05T09:36:40.616Z,32.64
2023-05-05T09:37:40.647Z,32.88
2023-05-05T09:38:40.666Z,34.30
2023-05-05T09:39:40.659Z,34.48
2023-05-05T09:40:40.693Z,30.65
2023-05-05T09:41:40.700Z,33.25
2023-05-05T09:42:40.730Z,36.78
2023-05-05T09:43:40.732Z,48.89
2023-05-05T09:44:40.793Z,61.73
2023-05-05T09:45:40.774Z,69.24
2023-05-05T09:46:40.937Z,76.13
2023-05-05T09:47:40.985Z,84.76
2023-05-05T09:48:40.965Z,84.80
2023-05-05T09:49:40.924Z,84.93
2023-05-05T09:50:40.997Z,85.57
2023-05-05T09:51:40.956Z,95.43
2023-05-05T09:52:40.980Z,92.12
2023-05-05T09:53:40.989Z,97.64
2023-05-05T09:54:41.000Z,114.49
2023-05-05T09:55:41.040Z,127.23
2023-05-05T09:56:41.045Z,135.71
2023-05-05T09:57:41.064Z,140.62
2023-05-05T09:58:41.112Z,149.04
2023-05-05T09:59:41.062Z,156.89
2023-05-05T10:00:41.064Z,157.14
2023-05-05T10:01:41.092Z,159.07
2023-05-05T10:02:41.216Z,164.68
2023-05-05T10:03:41.105Z,174.80
2023-05-05T10:04:41.136Z,188.36
2023-05-05T10:05:41.133Z,197.21
2023-05-05T10:06:41.141Z,201.86
2023-05-05T10:07:41.171Z,204.41
2023-05-05T10:08:41.160Z,210.12
2023-05-05T10:09:41.154Z,210.18
2023-05-05T10:10:41.153Z,210.45
2023-05-05T10:11:41.158Z,210.29
2023-05-05T10:12:41.220Z,212.02
2023-05-05T10:13:41.152Z,217.41
2023-05-05T10:14:41.157Z,221.61
2023-05-05T10:15:41.160Z,223.50
2023-05-05T10:16:41.191Z,225.55
2023-05-05T10:17:44.052Z,224.00
2023-05-05T10:18:42.338Z,224.03
2023-05-05T10:19:41.159Z,224.12
2023-05-05T10:20:41.159Z,224.80
2023-05-05T10:21:42.058Z,224.48
2023-05-05T10:22:41.139Z,224.05
2023-05-05T10:23:41.153Z,222.64
2023-05-05T10:24:41.172Z,216.83
2023-05-05T10:25:41.171Z,215.93
2023-05-05T10:26:41.184Z,225.96
2023-05-05T10:27:41.166Z,219.81
2023-05-05T10:28:41.150Z,222.20
2023-05-05T10:29:41.158Z,212.33
2023-05-05T10:30:41.147Z,184.03
2023-05-05T10:31:41.169Z,171.42
2023-05-05T10:33:41.222Z,169.19
2023-05-05T10:34:41.275Z,173.74
2023-05-05T10:35:41.160Z,179.65
2023-05-05T10:36:41.158Z,171.23
2023-05-05T10:37:41.168Z,167.03
2023-05-05T10:38:41.150Z,169.03
2023-05-05T10:39:41.157Z,175.97
2023-05-05T10:40:41.164Z,187.25
2023-05-05T10:41:41.155Z,189.97
2023-05-05T10:42:41.145Z,196.26
2023-05-05T10:43:41.139Z,200.68
2023-05-05T10:44:41.139Z,200.84
2023-05-05T10:45:41.185Z,202.67
2023-05-05T10:46:41.285Z,206.22
2023-05-05T10:47:41.159Z,209.67
2023-05-05T10:48:41.187Z,206.81
2023-05-05T10:49:41.115Z,194.93
2023-05-05T10:50:41.169Z,172.73
2023-05-05T10:51:41.382Z,166.93
2023-05-05T10:52:41.093Z,169.18
2023-05-05T10:53:41.124Z,161.65
2023-05-05T10:54:41.095Z,155.82
2023-05-05T10:55:41.105Z,155.60
2023-05-05T10:56:41.094Z,161.96
2023-05-05T10:57:41.085Z,167.14
2023-05-05T10:58:58.372Z,165.39
2023-05-05T10:59:42.117Z,164.43
2023-05-05T11:00:41.109Z,157.81
2023-05-05T11:01:41.076Z,151.34
2023-05-05T11:02:41.111Z,144.70
2023-05-05T11:03:41.104Z,136.67
2023-05-05T11:04:41.077Z,134.67
2023-05-05T11:05:41.078Z,139.06
2023-05-05T11:06:41.207Z,140.14
2023-05-05T11:07:41.077Z,142.66
2023-05-05T11:08:41.125Z,146.47
2023-05-05T11:09:41.156Z,145.36
2023-05-05T11:10:41.201Z,142.90
2023-05-05T11:11:41.259Z,133.21
2023-05-05T11:12:41.363Z,131.18
2023-05-05T11:13:41.361Z,134.74
2023-05-05T11:14:41.414Z,139.13
2023-05-05T11:15:41.511Z,142.16
2023-05-05T11:16:41.595Z,141.05
2023-05-05T11:17:41.611Z,129.26
2023-05-05T11:18:41.639Z,104.49
2023-05-05T11:19:41.700Z,103.97
2023-05-05T11:20:41.740Z,91.58
2023-05-05T11:21:41.822Z,84.67
2023-05-05T11:22:41.877Z,81.88
2023-05-05T11:23:41.943Z,81.91
2023-05-05T11:24:42.011Z,68.82
2023-05-05T11:25:42.141Z,70.83
2023-05-05T11:26:42.141Z,63.43
2023-05-05T11:27:42.210Z,55.58
2023-05-05T11:28:42.274Z,62.37
2023-05-05T11:29:42.357Z,58.66
2023-05-05T11:30:42.434Z,54.73
2023-05-05T11:31:42.520Z,53.46
2023-05-05T11:32:42.551Z,52.16
2023-05-05T11:33:42.606Z,47.21
2023-05-05T11:34:42.668Z,45.64
2023-05-05T11:35:42.730Z,46.46
2023-05-05T11:36:42.797Z,50.64
2023-05-05T11:37:42.876Z,61.54
2023-05-05T11:38:43.006Z,66.65
2023-05-05T11:39:43.011Z,75.30
2023-05-05T11:40:43.055Z,74.77
2023-05-05T11:41:43.125Z,67.92
2023-05-05T11:42:43.192Z,82.82
2023-05-05T11:43:43.194Z,79.30
2023-05-05T11:44:43.197Z,75.30
2023-05-05T11:45:43.215Z,83.68
2023-05-05T11:46:43.247Z,84.30
2023-05-05T11:47:43.224Z,79.49
2023-05-05T11:48:43.198Z,70.87
2023-05-05T11:49:43.204Z,76.83
2023-05-05T11:50:43.196Z,70.02
2023-05-05T11:51:43.267Z,64.69
2023-05-05T11:52:43.205Z,66.81
2023-05-05T11:53:43.198Z,69.13
2023-05-05T11:54:43.267Z,78.01
2023-05-05T11:55:43.215Z,85.88
2023-05-05T11:56:43.221Z,94.47
2023-05-05T11:57:43.221Z,94.66
2023-05-05T11:58:43.213Z,96.35
2023-05-05T11:59:43.200Z,99.50
2023-05-05T12:00:43.193Z,105.19
2023-05-05T12:01:43.198Z,113.91
2023-05-05T12:02:43.254Z,116.84
2023-05-05T12:03:43.429Z,117.64
2023-05-05T12:04:43.207Z,117.50
2023-05-05T12:05:43.158Z,120.54
2023-05-05T12:06:43.245Z,123.28
2023-05-05T12:07:43.276Z,123.78
2023-05-05T12:08:43.341Z,125.38
2023-05-05T12:09:43.410Z,126.93
2023-05-05T12:10:43.536Z,131.41
2023-05-05T12:11:43.519Z,134.39
2023-05-05T12:12:43.630Z,129.86
2023-05-05T12:13:43.648Z,125.03
2023-05-05T12:14:43.717Z,122.55
2023-05-05T12:15:43.755Z,128.03
2023-05-05T12:16:43.881Z,123.93
2023-05-05T12:17:43.909Z,123.38
2023-05-05T12:18:43.931Z,125.79
2023-05-05T12:19:44.005Z,129.79
2023-05-05T12:20:44.077Z,125.20
2023-05-05T12:21:44.112Z,121.06
2023-05-05T12:22:44.186Z,121.17
2023-05-05T12:23:44.187Z,117.40
2023-05-05T12:24:44.184Z,116.91
2023-05-05T12:25:44.183Z,104.27
2023-05-05T12:26:44.285Z,103.65
2023-05-05T12:27:44.174Z,108.18
2023-05-05T12:28:44.170Z,102.66
2023-05-05T12:29:44.168Z,104.47
2023-05-05T12:30:44.186Z,107.91
2023-05-05T12:31:44.187Z,109.29
2023-05-05T12:32:44.363Z,111.28
2023-05-05T12:33:44.294Z,115.16
2023-05-05T12:34:44.343Z,110.75
2023-05-05T12:35:44.411Z,112.03
2023-05-05T12:36:44.446Z,115.11
2023-05-05T12:37:44.510Z,118.07
2023-05-05T12:38:44.551Z,122.28
2023-05-05T12:39:44.605Z,123.55
2023-05-05T12:40:44.741Z,129.47